sensor_id;sensor_type;location;lat;lon;timestamp;temperature;humidity
3478;DHT22;37937;61.490;23.506;2023-06-26T00:02:14;15.30;99.90
3478;DHT22;37937;61.490;23.506;2023-06-26T00:04:41;15.30;99.90
3478;DHT22;37937;61.490;23.506;2023-06-26T00:07:06;15.40;99.90
3478;DHT22;37937;61.490;23.506;2023-06-26T00:09:32;15.30;99.90
3478;DHT22;37937;61.490;23.506;2023-06-26T00:11:58;15.40;99.90
3478;DHT22;37937;61.490;23.506;2023-06-26T00:14:24;15.30;99.90
3478;DHT22;37937;61.490;23.506;2023-06-26T00:16:51;15.20;99.90
3478;DHT22;37937;61.490;23.506;2023-06-26T00:19:17;15.10;99.90
3478;DHT22;37937;61.490;23.506;2023-06-26T00:21:43;15.10;99.90
3478;DHT22;37937;61.490;23.506;2023-06-26T00:24:13;15.10;99.90
3478;DHT22;37937;61.490;23.506;2023-06-26T00:26:39;15.00;99.90
3478;DHT22;37937;61.490;23.506;2023-06-26T00:29:05;15.00;99.90
3478;DHT22;37937;61.490;23.506;2023-06-26T00:31:30;15.10;99.90
3478;DHT22;37937;61.490;23.506;2023-06-26T00:33:56;15.10;99.90
3478;DHT22;37937;61.490;23.506;2023-06-26T00:36:22;15.00;99.90
3478;DHT22;37937;61.490;23.506;2023-06-26T00:38:52;15.00;99.90
3478;DHT22;37937;61.490;23.506;2023-06-26T00:41:18;15.00;99.90
3478;DHT22;37937;61.490;23.506;2023-06-26T00:43:44;15.00;99.90
3478;DHT22;37937;61.490;23.506;2023-06-26T00:46:10;14.80;99.90
3478;DHT22;37937;61.490;23.506;2023-06-26T00:48:37;14.90;99.90
3478;DHT22;37937;61.490;23.506;2023-06-26T00:51:03;14.90;99.90
3478;DHT22;37937;61.490;23.506;2023-06-26T00:53:30;14.80;99.90
3478;DHT22;37937;61.490;23.506;2023-06-26T00:55:56;14.90;99.90
3478;DHT22;37937;61.490;23.506;2023-06-26T00:58:22;14.80;99.90
3478;DHT22;37937;61.490;23.506;2023-06-26T01:00:49;14.80;99.90
3478;DHT22;37937;61.490;23.506;2023-06-26T01:03:15;14.90;99.90
3478;DHT22;37937;61.490;23.506;2023-06-26T01:05:41;14.80;99.90
3478;DHT22;37937;61.490;23.506;2023-06-26T01:08:13;14.80;99.90
3478;DHT22;37937;61.490;23.506;2023-06-26T01:10:39;14.80;99.90
3478;DHT22;37937;61.490;23.506;2023-06-26T01:13:05;14.80;99.90
3478;DHT22;37937;61.490;23.506;2023-06-26T01:15:31;14.80;99.90
3478;DHT22;37937;61.490;23.506;2023-06-26T01:17:57;14.90;99.90
3478;DHT22;37937;61.490;23.506;2023-06-26T01:20:30;15.00;99.90
3478;DHT22;37937;61.490;23.506;2023-06-26T01:23:02;15.10;99.90
3478;DHT22;37937;61.490;23.506;2023-06-26T01:25:35;15.10;99.50
3478;DHT22;37937;61.490;23.506;2023-06-26T01:28:07;15.00;99.90
3478;DHT22;37937;61.490;23.506;2023-06-26T01:30:34;15.00;99.90
3478;DHT22;37937;61.490;23.506;2023-06-26T01:33:00;15.00;99.90
3478;DHT22;37937;61.490;23.506;2023-06-26T01:35:27;14.90;99.90
3478;DHT22;37937;61.490;23.506;2023-06-26T01:37:53;14.90;99.90
3478;DHT22;37937;61.490;23.506;2023-06-26T01:40:18;14.90;99.90
3478;DHT22;37937;61.490;23.506;2023-06-26T01:42:44;14.90;99.90
3478;DHT22;37937;61.490;23.506;2023-06-26T01:45:12;15.00;99.90
3478;DHT22;37937;61.490;23.506;2023-06-26T01:47:38;15.00;99.90
3478;DHT22;37937;61.490;23.506;2023-06-26T01:50:09;15.10;99.90
3478;DHT22;37937;61.490;23.506;2023-06-26T01:52:40;14.90;99.90
3478;DHT22;37937;61.490;23.506;2023-06-26T01:57:32;14.90;99.90
3478;DHT22;37937;61.490;23.506;2023-06-26T02:00:00;14.90;99.90
3478;DHT22;37937;61.490;23.506;2023-06-26T02:02:28;14.80;99.90
3478;DHT22;37937;61.490;23.506;2023-06-26T02:04:54;14.80;99.90
3478;DHT22;37937;61.490;23.506;2023-06-26T02:07:19;14.80;99.90
3478;DHT22;37937;61.490;23.506;2023-06-26T02:09:45;14.80;99.90
3478;DHT22;37937;61.490;23.506;2023-06-26T02:12:11;14.90;99.90
3478;DHT22;37937;61.490;23.506;2023-06-26T02:14:37;14.80;99.90
3478;DHT22;37937;61.490;23.506;2023-06-26T02:17:03;14.80;99.90
3478;DHT22;37937;61.490;23.506;2023-06-26T02:19:28;14.80;99.90
3478;DHT22;37937;61.490;23.506;2023-06-26T02:21:54;14.90;99.90
3478;DHT22;37937;61.490;23.506;2023-06-26T02:24:20;15.00;99.90
3478;DHT22;37937;61.490;23.506;2023-06-26T02:26:45;14.90;99.90
3478;DHT22;37937;61.490;23.506;2023-06-26T02:29:11;15.00;99.90
3478;DHT22;37937;61.490;23.506;2023-06-26T02:31:37;15.00;99.90
3478;DHT22;37937;61.490;23.506;2023-06-26T02:34:03;15.00;99.90
3478;DHT22;37937;61.490;23.506;2023-06-26T02:36:29;15.00;99.90
3478;DHT22;37937;61.490;23.506;2023-06-26T02:38:55;14.70;99.90
3478;DHT22;37937;61.490;23.506;2023-06-26T02:41:21;15.00;99.90
3478;DHT22;37937;61.490;23.506;2023-06-26T02:43:47;15.10;99.90
3478;DHT22;37937;61.490;23.506;2023-06-26T02:46:12;15.20;99.90
3478;DHT22;37937;61.490;23.506;2023-06-26T02:48:38;15.20;99.90
3478;DHT22;37937;61.490;23.506;2023-06-26T02:51:04;15.30;99.90
3478;DHT22;37937;61.490;23.506;2023-06-26T02:53:30;15.30;99.90
3478;DHT22;37937;61.490;23.506;2023-06-26T02:55:56;15.40;99.90
3478;DHT22;37937;61.490;23.506;2023-06-26T02:58:22;15.40;99.90
3478;DHT22;37937;61.490;23.506;2023-06-26T03:00:48;15.40;99.90
3478;DHT22;37937;61.490;23.506;2023-06-26T03:03:14;15.50;99.90
3478;DHT22;37937;61.490;23.506;2023-06-26T03:05:39;15.50;99.90
3478;DHT22;37937;61.490;23.506;2023-06-26T03:08:05;15.60;99.90
3478;DHT22;37937;61.490;23.506;2023-06-26T03:10:31;15.70;99.90
3478;DHT22;37937;61.490;23.506;2023-06-26T03:12:57;15.70;99.90
3478;DHT22;37937;61.490;23.506;2023-06-26T03:15:22;15.80;99.90
3478;DHT22;37937;61.490;23.506;2023-06-26T03:17:48;15.90;99.90
3478;DHT22;37937;61.490;23.506;2023-06-26T03:20:14;16.10;99.90
3478;DHT22;37937;61.490;23.506;2023-06-26T03:22:44;16.20;99.90
3478;DHT22;37937;61.490;23.506;2023-06-26T03:25:10;16.30;99.90
3478;DHT22;37937;61.490;23.506;2023-06-26T03:27:36;16.50;99.90
3478;DHT22;37937;61.490;23.506;2023-06-26T03:30:01;16.70;99.90
3478;DHT22;37937;61.490;23.506;2023-06-26T03:32:27;17.00;99.90
3478;DHT22;37937;61.490;23.506;2023-06-26T03:34:53;17.20;99.90
3478;DHT22;37937;61.490;23.506;2023-06-26T03:37:18;17.40;99.90
3478;DHT22;37937;61.490;23.506;2023-06-26T03:39:44;17.70;99.90
3478;DHT22;37937;61.490;23.506;2023-06-26T03:42:10;17.90;99.90
3478;DHT22;37937;61.490;23.506;2023-06-26T03:44:35;18.10;99.90
3478;DHT22;37937;61.490;23.506;2023-06-26T03:47:01;18.30;99.90
3478;DHT22;37937;61.490;23.506;2023-06-26T03:49:27;18.60;99.90
3478;DHT22;37937;61.490;23.506;2023-06-26T03:51:52;18.70;99.90
3478;DHT22;37937;61.490;23.506;2023-06-26T03:54:18;18.90;99.90
3478;DHT22;37937;61.490;23.506;2023-06-26T03:56:44;19.00;99.90
3478;DHT22;37937;61.490;23.506;2023-06-26T03:59:09;19.10;99.90
3478;DHT22;37937;61.490;23.506;2023-06-26T04:01:35;19.10;99.90
3478;DHT22;37937;61.490;23.506;2023-06-26T04:04:01;19.40;99.90
3478;DHT22;37937;61.490;23.506;2023-06-26T04:06:27;19.50;99.90
3478;DHT22;37937;61.490;23.506;2023-06-26T04:08:52;19.80;99.90
3478;DHT22;37937;61.490;23.506;2023-06-26T04:11:18;20.30;99.90
3478;DHT22;37937;61.490;23.506;2023-06-26T04:13:44;20.80;99.90
3478;DHT22;37937;61.490;23.506;2023-06-26T04:16:09;21.10;99.20
3478;DHT22;37937;61.490;23.506;2023-06-26T04:18:37;21.50;95.40
3478;DHT22;37937;61.490;23.506;2023-06-26T04:21:09;21.80;92.40
3478;DHT22;37937;61.490;23.506;2023-06-26T04:23:37;22.10;90.00
3478;DHT22;37937;61.490;23.506;2023-06-26T04:26:03;22.60;87.30
3478;DHT22;37937;61.490;23.506;2023-06-26T04:28:30;23.00;70.10
3478;DHT22;37937;61.490;23.506;2023-06-26T04:30:56;23.10;68.90
3478;DHT22;37937;61.490;23.506;2023-06-26T04:33:22;23.60;67.60
3478;DHT22;37937;61.490;23.506;2023-06-26T04:35:48;23.90;55.50
3478;DHT22;37937;61.490;23.506;2023-06-26T04:38:14;24.00;51.60
3478;DHT22;37937;61.490;23.506;2023-06-26T04:40:40;24.00;48.80
3478;DHT22;37937;61.490;23.506;2023-06-26T04:43:06;24.20;45.00
3478;DHT22;37937;61.490;23.506;2023-06-26T04:45:32;24.80;45.30
3478;DHT22;37937;61.490;23.506;2023-06-26T04:47:58;24.60;40.00
3478;DHT22;37937;61.490;23.506;2023-06-26T04:50:25;25.00;41.90
3478;DHT22;37937;61.490;23.506;2023-06-26T04:52:50;25.40;38.90
3478;DHT22;37937;61.490;23.506;2023-06-26T04:55:16;25.70;31.80
3478;DHT22;37937;61.490;23.506;2023-06-26T04:57:42;25.90;32.70
3478;DHT22;37937;61.490;23.506;2023-06-26T05:00:07;26.00;30.50
3478;DHT22;37937;61.490;23.506;2023-06-26T05:02:36;25.20;27.80
3478;DHT22;37937;61.490;23.506;2023-06-26T05:05:05;25.40;25.40
3478;DHT22;37937;61.490;23.506;2023-06-26T05:07:30;24.40;26.70
3478;DHT22;37937;61.490;23.506;2023-06-26T05:09:56;24.40;26.20
3478;DHT22;37937;61.490;23.506;2023-06-26T05:12:21;23.40;31.40
3478;DHT22;37937;61.490;23.506;2023-06-26T05:14:47;25.10;34.90
3478;DHT22;37937;61.490;23.506;2023-06-26T05:17:16;24.50;32.50
3478;DHT22;37937;61.490;23.506;2023-06-26T05:19:41;25.50;25.60
3478;DHT22;37937;61.490;23.506;2023-06-26T05:22:07;25.00;30.00
3478;DHT22;37937;61.490;23.506;2023-06-26T05:24:37;25.30;28.20
3478;DHT22;37937;61.490;23.506;2023-06-26T05:27:03;26.20;26.80
3478;DHT22;37937;61.490;23.506;2023-06-26T05:29:30;26.40;24.10
3478;DHT22;37937;61.490;23.506;2023-06-26T05:31:56;26.70;19.70
3478;DHT22;37937;61.490;23.506;2023-06-26T05:34:25;26.20;21.20
3478;DHT22;37937;61.490;23.506;2023-06-26T05:36:55;26.40;20.00
3478;DHT22;37937;61.490;23.506;2023-06-26T05:39:22;26.50;21.70
3478;DHT22;37937;61.490;23.506;2023-06-26T05:41:48;24.90;19.00
3478;DHT22;37937;61.490;23.506;2023-06-26T05:44:14;25.00;24.30
3478;DHT22;37937;61.490;23.506;2023-06-26T05:46:40;26.30;21.10
3478;DHT22;37937;61.490;23.506;2023-06-26T05:49:06;26.00;22.40
3478;DHT22;37937;61.490;23.506;2023-06-26T05:51:32;26.50;21.30
3478;DHT22;37937;61.490;23.506;2023-06-26T05:53:58;26.90;20.50
3478;DHT22;37937;61.490;23.506;2023-06-26T05:56:24;26.80;17.40
3478;DHT22;37937;61.490;23.506;2023-06-26T05:58:50;26.00;16.60
3478;DHT22;37937;61.490;23.506;2023-06-26T06:01:18;26.60;17.00
3478;DHT22;37937;61.490;23.506;2023-06-26T06:03:45;26.80;16.80
3478;DHT22;37937;61.490;23.506;2023-06-26T06:06:11;26.60;14.50
3478;DHT22;37937;61.490;23.506;2023-06-26T06:08:36;27.00;12.60
3478;DHT22;37937;61.490;23.506;2023-06-26T06:11:02;27.10;14.90
3478;DHT22;37937;61.490;23.506;2023-06-26T06:13:28;27.10;13.80
3478;DHT22;37937;61.490;23.506;2023-06-26T06:15:53;27.30;10.50
3478;DHT22;37937;61.490;23.506;2023-06-26T06:18:20;26.70;12.30
3478;DHT22;37937;61.490;23.506;2023-06-26T06:20:46;26.60;10.60
3478;DHT22;37937;61.490;23.506;2023-06-26T06:23:12;25.90;9.30
3478;DHT22;37937;61.490;23.506;2023-06-26T06:25:38;26.60;9.00
3478;DHT22;37937;61.490;23.506;2023-06-26T06:28:06;26.00;12.30
3478;DHT22;37937;61.490;23.506;2023-06-26T06:30:32;26.70;12.10
3478;DHT22;37937;61.490;23.506;2023-06-26T06:32:58;26.70;9.20
3478;DHT22;37937;61.490;23.506;2023-06-26T06:35:29;26.30;10.60
3478;DHT22;37937;61.490;23.506;2023-06-26T06:37:55;26.10;10.30
3478;DHT22;37937;61.490;23.506;2023-06-26T06:40:21;26.50;8.40
3478;DHT22;37937;61.490;23.506;2023-06-26T06:42:47;26.40;11.60
3478;DHT22;37937;61.490;23.506;2023-06-26T06:45:13;26.50;11.30
3478;DHT22;37937;61.490;23.506;2023-06-26T06:47:39;26.10;13.40
3478;DHT22;37937;61.490;23.506;2023-06-26T06:50:05;26.10;13.10
3478;DHT22;37937;61.490;23.506;2023-06-26T06:52:37;26.30;10.80
3478;DHT22;37937;61.490;23.506;2023-06-26T06:55:03;26.10;12.60
3478;DHT22;37937;61.490;23.506;2023-06-26T06:57:37;26.30;12.90
3478;DHT22;37937;61.490;23.506;2023-06-26T07:00:07;26.50;12.10
3478;DHT22;37937;61.490;23.506;2023-06-26T07:02:37;26.70;13.80
3478;DHT22;37937;61.490;23.506;2023-06-26T07:05:03;26.40;9.50
3478;DHT22;37937;61.490;23.506;2023-06-26T07:07:29;26.20;11.60
3478;DHT22;37937;61.490;23.506;2023-06-26T07:09:59;25.60;11.10
3478;DHT22;37937;61.490;23.506;2023-06-26T07:12:25;26.00;11.30
3478;DHT22;37937;61.490;23.506;2023-06-26T07:14:50;26.20;10.50
3478;DHT22;37937;61.490;23.506;2023-06-26T07:17:16;26.10;12.30
3478;DHT22;37937;61.490;23.506;2023-06-26T07:19:42;26.20;10.60
3478;DHT22;37937;61.490;23.506;2023-06-26T07:22:08;25.70;10.00
3478;DHT22;37937;61.490;23.506;2023-06-26T07:24:33;26.40;10.90
3478;DHT22;37937;61.490;23.506;2023-06-26T07:26:59;26.00;11.40
3478;DHT22;37937;61.490;23.506;2023-06-26T07:29:26;25.70;9.80
3478;DHT22;37937;61.490;23.506;2023-06-26T07:31:51;26.20;9.40
3478;DHT22;37937;61.490;23.506;2023-06-26T07:34:19;26.10;7.60
3478;DHT22;37937;61.490;23.506;2023-06-26T07:36:45;26.70;6.00
3478;DHT22;37937;61.490;23.506;2023-06-26T07:39:11;26.60;7.80
3478;DHT22;37937;61.490;23.506;2023-06-26T07:41:36;26.80;4.70
3478;DHT22;37937;61.490;23.506;2023-06-26T07:44:02;26.50;4.60
3478;DHT22;37937;61.490;23.506;2023-06-26T07:46:28;26.00;6.20
3478;DHT22;37937;61.490;23.506;2023-06-26T07:48:53;26.10;6.90
3478;DHT22;37937;61.490;23.506;2023-06-26T07:51:19;25.60;5.90
3478;DHT22;37937;61.490;23.506;2023-06-26T07:53:45;25.40;4.90
3478;DHT22;37937;61.490;23.506;2023-06-26T07:56:11;25.30;8.20
3478;DHT22;37937;61.490;23.506;2023-06-26T07:58:36;25.30;7.00
3478;DHT22;37937;61.490;23.506;2023-06-26T08:01:02;25.70;6.90
3478;DHT22;37937;61.490;23.506;2023-06-26T08:03:28;25.30;7.00
3478;DHT22;37937;61.490;23.506;2023-06-26T08:05:53;26.00;9.00
3478;DHT22;37937;61.490;23.506;2023-06-26T08:08:19;25.90;7.10
3478;DHT22;37937;61.490;23.506;2023-06-26T08:10:45;26.50;7.10
3478;DHT22;37937;61.490;23.506;2023-06-26T08:13:10;26.40;2.70
3478;DHT22;37937;61.490;23.506;2023-06-26T08:15:36;25.70;4.60
3478;DHT22;37937;61.490;23.506;2023-06-26T08:18:02;25.70;4.60
3478;DHT22;37937;61.490;23.506;2023-06-26T08:20:28;25.80;1.40
3478;DHT22;37937;61.490;23.506;2023-06-26T08:22:53;25.80;4.20
3478;DHT22;37937;61.490;23.506;2023-06-26T08:25:20;26.30;3.10
3478;DHT22;37937;61.490;23.506;2023-06-26T08:27:45;26.00;1.00
3478;DHT22;37937;61.490;23.506;2023-06-26T08:30:11;25.80;2.60
3478;DHT22;37937;61.490;23.506;2023-06-26T08:32:39;26.00;2.50
3478;DHT22;37937;61.490;23.506;2023-06-26T08:35:06;26.20;2.50
3478;DHT22;37937;61.490;23.506;2023-06-26T08:37:31;26.40;2.20
3478;DHT22;37937;61.490;23.506;2023-06-26T08:40:01;25.80;1.30
3478;DHT22;37937;61.490;23.506;2023-06-26T08:42:26;26.20;1.00
3478;DHT22;37937;61.490;23.506;2023-06-26T08:44:52;26.30;2.80
3478;DHT22;37937;61.490;23.506;2023-06-26T08:47:18;26.10;1.00
3478;DHT22;37937;61.490;23.506;2023-06-26T08:49:51;26.20;2.60
3478;DHT22;37937;61.490;23.506;2023-06-26T08:52:36;26.80;1.00
3478;DHT22;37937;61.490;23.506;2023-06-26T08:55:02;26.80;1.00
3478;DHT22;37937;61.490;23.506;2023-06-26T08:57:27;26.80;1.00
3478;DHT22;37937;61.490;23.506;2023-06-26T08:59:53;26.70;1.00
3478;DHT22;37937;61.490;23.506;2023-06-26T09:02:19;26.30;1.00
3478;DHT22;37937;61.490;23.506;2023-06-26T09:04:49;26.30;1.00
3478;DHT22;37937;61.490;23.506;2023-06-26T09:07:15;26.80;1.00
3478;DHT22;37937;61.490;23.506;2023-06-26T09:09:41;26.50;1.00
3478;DHT22;37937;61.490;23.506;2023-06-26T09:12:08;26.90;1.00
3478;DHT22;37937;61.490;23.506;2023-06-26T09:14:33;26.80;1.00
3478;DHT22;37937;61.490;23.506;2023-06-26T09:16:59;27.00;1.00
3478;DHT22;37937;61.490;23.506;2023-06-26T09:19:25;27.00;1.00
3478;DHT22;37937;61.490;23.506;2023-06-26T09:21:52;27.10;1.00
3478;DHT22;37937;61.490;23.506;2023-06-26T09:24:17;26.40;1.00
3478;DHT22;37937;61.490;23.506;2023-06-26T09:26:43;26.40;1.00
3478;DHT22;37937;61.490;23.506;2023-06-26T09:29:09;26.30;1.00
3478;DHT22;37937;61.490;23.506;2023-06-26T09:31:38;26.30;1.00
3478;DHT22;37937;61.490;23.506;2023-06-26T09:34:05;26.30;1.00
3478;DHT22;37937;61.490;23.506;2023-06-26T09:36:31;26.50;1.00
3478;DHT22;37937;61.490;23.506;2023-06-26T09:39:01;26.80;1.00
3478;DHT22;37937;61.490;23.506;2023-06-26T09:41:27;27.20;1.00
3478;DHT22;37937;61.490;23.506;2023-06-26T09:43:54;27.40;1.00
3478;DHT22;37937;61.490;23.506;2023-06-26T09:48:49;26.80;1.00
3478;DHT22;37937;61.490;23.506;2023-06-26T09:51:16;27.20;1.00
3478;DHT22;37937;61.490;23.506;2023-06-26T09:53:42;26.60;1.00
3478;DHT22;37937;61.490;23.506;2023-06-26T09:56:10;26.00;1.00
3478;DHT22;37937;61.490;23.506;2023-06-26T09:58:40;25.70;1.00
3478;DHT22;37937;61.490;23.506;2023-06-26T10:01:06;25.50;1.00
3478;DHT22;37937;61.490;23.506;2023-06-26T10:03:34;25.50;1.00
3478;DHT22;37937;61.490;23.506;2023-06-26T10:06:00;25.90;1.00
3478;DHT22;37937;61.490;23.506;2023-06-26T10:08:27;26.70;1.00
3478;DHT22;37937;61.490;23.506;2023-06-26T10:10:52;26.40;1.00
3478;DHT22;37937;61.490;23.506;2023-06-26T10:13:21;26.20;1.00
3478;DHT22;37937;61.490;23.506;2023-06-26T10:15:47;26.50;1.00
3478;DHT22;37937;61.490;23.506;2023-06-26T10:18:13;26.80;1.00
3478;DHT22;37937;61.490;23.506;2023-06-26T10:20:40;26.70;1.00
3478;DHT22;37937;61.490;23.506;2023-06-26T10:23:07;27.20;1.00
3478;DHT22;37937;61.490;23.506;2023-06-26T10:25:34;27.30;1.00
3478;DHT22;37937;61.490;23.506;2023-06-26T10:28:02;27.40;1.00
3478;DHT22;37937;61.490;23.506;2023-06-26T10:30:31;27.70;1.00
3478;DHT22;37937;61.490;23.506;2023-06-26T10:32:57;27.50;1.00
3478;DHT22;37937;61.490;23.506;2023-06-26T10:35:23;27.40;1.00
3478;DHT22;37937;61.490;23.506;2023-06-26T10:37:50;27.20;1.00
3478;DHT22;37937;61.490;23.506;2023-06-26T10:40:25;26.80;1.00
3478;DHT22;37937;61.490;23.506;2023-06-26T10:42:50;26.30;1.00
3478;DHT22;37937;61.490;23.506;2023-06-26T10:45:20;26.50;1.00
3478;DHT22;37937;61.490;23.506;2023-06-26T10:47:46;26.60;1.00
3478;DHT22;37937;61.490;23.506;2023-06-26T10:50:28;27.20;1.00
3478;DHT22;37937;61.490;23.506;2023-06-26T10:55:50;27.30;1.00
3478;DHT22;37937;61.490;23.506;2023-06-26T10:58:29;26.50;1.00
3478;DHT22;37937;61.490;23.506;2023-06-26T11:03:42;26.60;1.00
3478;DHT22;37937;61.490;23.506;2023-06-26T11:06:12;26.90;1.00
3478;DHT22;37937;61.490;23.506;2023-06-26T11:08:45;27.00;1.00
3478;DHT22;37937;61.490;23.506;2023-06-26T11:11:11;27.20;1.00
3478;DHT22;37937;61.490;23.506;2023-06-26T11:13:37;26.90;1.00
3478;DHT22;37937;61.490;23.506;2023-06-26T11:16:02;27.40;1.00
3478;DHT22;37937;61.490;23.506;2023-06-26T11:18:28;27.30;1.00
3478;DHT22;37937;61.490;23.506;2023-06-26T11:21:03;27.30;1.00
3478;DHT22;37937;61.490;23.506;2023-06-26T11:23:29;27.40;1.00
3478;DHT22;37937;61.490;23.506;2023-06-26T11:25:55;28.00;1.00
3478;DHT22;37937;61.490;23.506;2023-06-26T11:28:22;27.50;1.00
3478;DHT22;37937;61.490;23.506;2023-06-26T11:30:48;27.80;1.00
3478;DHT22;37937;61.490;23.506;2023-06-26T11:33:13;28.30;1.00
3478;DHT22;37937;61.490;23.506;2023-06-26T11:35:39;28.10;1.00
3478;DHT22;37937;61.490;23.506;2023-06-26T11:38:04;27.80;1.00
3478;DHT22;37937;61.490;23.506;2023-06-26T11:40:31;27.40;1.00
3478;DHT22;37937;61.490;23.506;2023-06-26T11:43:05;27.50;1.00
3478;DHT22;37937;61.490;23.506;2023-06-26T11:45:31;27.80;1.00
3478;DHT22;37937;61.490;23.506;2023-06-26T11:47:57;27.30;1.00
3478;DHT22;37937;61.490;23.506;2023-06-26T11:50:23;26.90;1.00
3478;DHT22;37937;61.490;23.506;2023-06-26T11:52:53;26.80;1.00
3478;DHT22;37937;61.490;23.506;2023-06-26T11:55:20;27.20;1.00
3478;DHT22;37937;61.490;23.506;2023-06-26T11:58:03;27.10;1.00
3478;DHT22;37937;61.490;23.506;2023-06-26T12:00:29;27.20;1.00
3478;DHT22;37937;61.490;23.506;2023-06-26T12:02:55;27.50;1.00
3478;DHT22;37937;61.490;23.506;2023-06-26T12:05:20;28.20;1.00
3478;DHT22;37937;61.490;23.506;2023-06-26T12:07:47;28.30;1.00
3478;DHT22;37937;61.490;23.506;2023-06-26T12:10:13;27.80;1.00
3478;DHT22;37937;61.490;23.506;2023-06-26T12:12:39;27.40;1.00
3478;DHT22;37937;61.490;23.506;2023-06-26T12:15:06;27.50;1.00
3478;DHT22;37937;61.490;23.506;2023-06-26T12:17:32;27.60;1.00
3478;DHT22;37937;61.490;23.506;2023-06-26T12:19:57;27.90;1.00
3478;DHT22;37937;61.490;23.506;2023-06-26T12:22:23;27.80;1.00
3478;DHT22;37937;61.490;23.506;2023-06-26T12:24:49;27.70;1.00
3478;DHT22;37937;61.490;23.506;2023-06-26T12:27:15;28.00;1.00
3478;DHT22;37937;61.490;23.506;2023-06-26T12:29:59;27.90;1.00
3478;DHT22;37937;61.490;23.506;2023-06-26T12:32:28;28.00;1.00
3478;DHT22;37937;61.490;23.506;2023-06-26T12:34:54;28.40;1.00
3478;DHT22;37937;61.490;23.506;2023-06-26T12:37:21;28.20;1.00
3478;DHT22;37937;61.490;23.506;2023-06-26T12:39:51;28.10;1.00
3478;DHT22;37937;61.490;23.506;2023-06-26T12:42:18;28.00;1.00
3478;DHT22;37937;61.490;23.506;2023-06-26T12:44:44;27.50;1.00
3478;DHT22;37937;61.490;23.506;2023-06-26T12:47:10;27.60;1.00
3478;DHT22;37937;61.490;23.506;2023-06-26T12:49:39;27.00;1.00
3478;DHT22;37937;61.490;23.506;2023-06-26T12:52:05;26.80;1.00
3478;DHT22;37937;61.490;23.506;2023-06-26T12:54:33;27.10;1.00
3478;DHT22;37937;61.490;23.506;2023-06-26T12:56:58;27.10;1.00
3478;DHT22;37937;61.490;23.506;2023-06-26T12:59:24;27.20;1.00
3478;DHT22;37937;61.490;23.506;2023-06-26T13:01:50;27.10;1.00
3478;DHT22;37937;61.490;23.506;2023-06-26T13:04:16;26.90;1.00
3478;DHT22;37937;61.490;23.506;2023-06-26T13:06:41;26.90;1.00
3478;DHT22;37937;61.490;23.506;2023-06-26T13:09:07;27.60;1.00
3478;DHT22;37937;61.490;23.506;2023-06-26T13:11:33;27.30;1.00
3478;DHT22;37937;61.490;23.506;2023-06-26T13:13:59;27.50;1.00
3478;DHT22;37937;61.490;23.506;2023-06-26T13:16:25;27.40;1.00
3478;DHT22;37937;61.490;23.506;2023-06-26T13:18:50;27.40;1.00
3478;DHT22;37937;61.490;23.506;2023-06-26T13:21:16;27.30;1.00
3478;DHT22;37937;61.490;23.506;2023-06-26T13:23:43;26.60;1.00
3478;DHT22;37937;61.490;23.506;2023-06-26T13:26:09;26.60;1.00
3478;DHT22;37937;61.490;23.506;2023-06-26T13:28:35;26.20;1.00
3478;DHT22;37937;61.490;23.506;2023-06-26T13:31:01;26.30;1.00
3478;DHT22;37937;61.490;23.506;2023-06-26T13:33:26;26.50;1.00
3478;DHT22;37937;61.490;23.506;2023-06-26T13:35:52;26.60;1.00
3478;DHT22;37937;61.490;23.506;2023-06-26T13:38:21;26.50;1.00
3478;DHT22;37937;61.490;23.506;2023-06-26T13:40:51;26.40;1.00
3478;DHT22;37937;61.490;23.506;2023-06-26T13:43:16;26.40;1.00
3478;DHT22;37937;61.490;23.506;2023-06-26T13:45:42;26.20;1.00
3478;DHT22;37937;61.490;23.506;2023-06-26T13:48:08;25.80;1.00
3478;DHT22;37937;61.490;23.506;2023-06-26T13:50:33;26.00;1.00
3478;DHT22;37937;61.490;23.506;2023-06-26T13:52:59;25.90;1.00
3478;DHT22;37937;61.490;23.506;2023-06-26T13:55:25;26.10;1.00
3478;DHT22;37937;61.490;23.506;2023-06-26T13:57:51;25.90;1.00
3478;DHT22;37937;61.490;23.506;2023-06-26T14:00:17;26.20;1.00
3478;DHT22;37937;61.490;23.506;2023-06-26T14:02:45;26.20;1.00
3478;DHT22;37937;61.490;23.506;2023-06-26T14:05:11;26.30;1.00
3478;DHT22;37937;61.490;23.506;2023-06-26T14:07:37;26.50;1.00
3478;DHT22;37937;61.490;23.506;2023-06-26T14:10:03;26.50;1.00
3478;DHT22;37937;61.490;23.506;2023-06-26T14:12:30;26.40;1.00
3478;DHT22;37937;61.490;23.506;2023-06-26T14:14:56;26.50;1.00
3478;DHT22;37937;61.490;23.506;2023-06-26T14:17:21;26.40;1.00
3478;DHT22;37937;61.490;23.506;2023-06-26T14:19:49;26.00;1.00
3478;DHT22;37937;61.490;23.506;2023-06-26T14:22:15;25.90;1.00
3478;DHT22;37937;61.490;23.506;2023-06-26T14:24:40;25.80;1.00
3478;DHT22;37937;61.490;23.506;2023-06-26T14:27:06;25.80;1.00
3478;DHT22;37937;61.490;23.506;2023-06-26T14:29:32;25.70;1.00
3478;DHT22;37937;61.490;23.506;2023-06-26T14:31:57;25.40;1.00
3478;DHT22;37937;61.490;23.506;2023-06-26T14:34:23;25.50;1.00
3478;DHT22;37937;61.490;23.506;2023-06-26T14:36:49;25.40;1.00
3478;DHT22;37937;61.490;23.506;2023-06-26T14:39:14;25.40;1.00
3478;DHT22;37937;61.490;23.506;2023-06-26T14:41:41;25.30;1.00
3478;DHT22;37937;61.490;23.506;2023-06-26T14:44:07;25.30;1.00
3478;DHT22;37937;61.490;23.506;2023-06-26T14:46:37;25.40;1.00
3478;DHT22;37937;61.490;23.506;2023-06-26T14:49:03;25.30;1.00
3478;DHT22;37937;61.490;23.506;2023-06-26T14:51:28;25.30;1.00
3478;DHT22;37937;61.490;23.506;2023-06-26T14:53:54;25.30;1.00
3478;DHT22;37937;61.490;23.506;2023-06-26T14:56:20;25.30;1.00
3478;DHT22;37937;61.490;23.506;2023-06-26T14:58:45;25.30;1.00
3478;DHT22;37937;61.490;23.506;2023-06-26T15:01:14;25.10;1.00
3478;DHT22;37937;61.490;23.506;2023-06-26T15:03:41;25.00;1.00
3478;DHT22;37937;61.490;23.506;2023-06-26T15:06:07;24.90;1.00
3478;DHT22;37937;61.490;23.506;2023-06-26T15:08:34;25.00;1.00
3478;DHT22;37937;61.490;23.506;2023-06-26T15:11:00;24.90;1.00
3478;DHT22;37937;61.490;23.506;2023-06-26T15:13:26;24.80;1.00
3478;DHT22;37937;61.490;23.506;2023-06-26T15:15:51;24.80;1.00
3478;DHT22;37937;61.490;23.506;2023-06-26T15:18:17;24.70;1.00
3478;DHT22;37937;61.490;23.506;2023-06-26T15:20:43;24.70;1.00
3478;DHT22;37937;61.490;23.506;2023-06-26T15:23:08;24.70;1.00
3478;DHT22;37937;61.490;23.506;2023-06-26T15:25:34;24.70;1.00
3478;DHT22;37937;61.490;23.506;2023-06-26T15:28:05;24.70;1.00
3478;DHT22;37937;61.490;23.506;2023-06-26T15:30:31;24.70;1.00
3478;DHT22;37937;61.490;23.506;2023-06-26T15:32:56;24.80;1.00
3478;DHT22;37937;61.490;23.506;2023-06-26T15:35:22;24.70;1.00
3478;DHT22;37937;61.490;23.506;2023-06-26T15:37:47;24.70;1.00
3478;DHT22;37937;61.490;23.506;2023-06-26T15:40:14;24.60;1.00
3478;DHT22;37937;61.490;23.506;2023-06-26T15:42:50;24.60;1.00
3478;DHT22;37937;61.490;23.506;2023-06-26T15:45:16;24.60;1.00
3478;DHT22;37937;61.490;23.506;2023-06-26T15:47:47;24.60;1.00